Time;durP1;ratioP1;P1;durP2;ratioP2;P2;SDS_P1;SDS_P2;PMS_P1;PMS_P2;Temp;Humidity;BMP_temperature;BMP_pressure;BME280_temperature;BME280_humidity;BME280_pressure;Samples;Min_cycle;Max_cycle;Signal;HPM_P1;HPM_P2
2023/04/26 00:00:19;;;;;;;11.70;8.33;;;;;;;9.32;61.51;96167.41;4990139;28;20177;-70
2023/04/26 00:02:45;;;;;;;16.57;8.70;;;;;;;9.27;61.98;96161.53;4990290;28;20204;-69
2023/04/26 00:05:10;;;;;;;12.33;9.07;;;;;;;9.24;62.35;96161.66;4989174;28;20188;-69
2023/04/26 00:07:36;;;;;;;15.20;9.10;;;;;;;9.26;62.38;96165.06;4990129;28;20200;-70
2023/04/26 00:10:04;;;;;;;14.63;8.40;;;;;;;9.30;62.07;96164.00;4990506;28;20181;-70
2023/04/26 00:12:29;;;;;;;11.00;8.83;;;;;;;9.29;61.38;96159.72;4990400;28;20447;-68
2023/04/26 00:14:55;;;;;;;13.30;8.00;;;;;;;9.31;61.09;96163.13;4990421;28;20558;-68
2023/04/26 00:17:20;;;;;;;14.27;9.57;;;;;;;9.28;61.70;96152.75;4989888;28;20169;-68
2023/04/26 00:19:45;;;;;;;10.83;7.57;;;;;;;9.15;61.33;96155.06;4990188;28;20181;-68
2023/04/26 00:22:11;;;;;;;12.73;7.83;;;;;;;9.21;60.50;96146.06;4990205;28;20215;-69
2023/04/26 00:24:37;;;;;;;17.43;9.53;;;;;;;9.00;61.05;96156.56;4988796;28;20181;-68
2023/04/26 00:27:07;;;;;;;14.80;7.60;;;;;;;9.15;61.08;96167.28;4989594;28;20457;-68
2023/04/26 00:29:33;;;;;;;11.27;7.80;;;;;;;9.22;61.50;96164.34;4990039;28;20231;-67
2023/04/26 00:31:58;;;;;;;22.57;8.40;;;;;;;9.14;60.27;96170.81;4989879;28;20425;-69
2023/04/26 00:34:24;;;;;;;10.30;6.50;;;;;;;9.11;61.72;96171.78;4989945;28;20193;-68
2023/04/26 00:36:49;;;;;;;12.33;7.10;;;;;;;9.06;60.26;96171.13;4992672;28;20173;-68
2023/04/26 00:39:15;;;;;;;14.57;7.50;;;;;;;9.04;61.89;96171.19;4993564;28;20184;-69
2023/04/26 00:41:40;;;;;;;10.10;8.27;;;;;;;9.26;60.94;96165.06;4992209;28;21058;-69
2023/04/26 00:44:06;;;;;;;11.63;7.90;;;;;;;9.19;59.57;96164.50;4991265;28;20197;-70
2023/04/26 00:46:32;;;;;;;10.47;8.33;;;;;;;9.16;58.75;96171.59;4989838;28;20205;-70
2023/04/26 00:48:57;;;;;;;8.70;6.50;;;;;;;9.24;58.50;96169.53;4989636;28;20184;-70
2023/04/26 00:51:23;;;;;;;9.03;6.23;;;;;;;9.21;58.18;96172.25;4989870;28;20181;-69
2023/04/26 00:53:48;;;;;;;7.23;6.20;;;;;;;9.30;59.01;96161.41;4989655;28;20667;-69
2023/04/26 00:56:15;;;;;;;7.93;6.10;;;;;;;9.20;58.22;96162.72;4989449;28;20169;-70
2023/04/26 00:58:41;;;;;;;14.70;6.70;;;;;;;9.13;58.04;96169.97;4989651;28;20208;-69
2023/04/26 01:01:06;;;;;;;9.07;6.30;;;;;;;9.17;58.11;96170.69;4989469;28;20450;-69
2023/04/26 01:03:32;;;;;;;10.83;7.90;;;;;;;9.23;60.19;96173.88;4989166;28;20677;-69
2023/04/26 01:05:58;;;;;;;13.90;7.70;;;;;;;9.20;61.30;96165.31;4989063;28;20824;-69
2023/04/26 01:08:23;;;;;;;10.50;7.57;;;;;;;9.11;61.72;96164.78;4989317;28;20184;-69
2023/04/26 01:10:49;;;;;;;11.47;8.03;;;;;;;9.02;61.33;96172.16;4988093;28;20412;-69
2023/04/26 01:13:15;;;;;;;12.77;8.10;;;;;;;8.95;62.29;96174.19;4989224;28;20286;-69
2023/04/26 01:15:44;;;;;;;7.70;6.90;;;;;;;9.00;61.91;96172.25;4989026;28;20208;-69
2023/04/26 01:18:10;;;;;;;14.80;8.90;;;;;;;8.93;61.91;96169.94;4988909;28;20789;-69
2023/04/26 01:20:35;;;;;;;7.93;5.70;;;;;;;8.94;61.12;96169.88;4989059;28;20416;-69
2023/04/26 01:23:01;;;;;;;7.93;7.03;;;;;;;8.97;61.32;96164.50;4988995;28;20228;-69
2023/04/26 01:25:27;;;;;;;8.60;5.93;;;;;;;8.87;61.71;96169.28;4988797;28;20538;-69
2023/04/26 01:27:54;;;;;;;9.90;6.20;;;;;;;8.76;62.00;96168.84;4988603;28;20200;-70
2023/04/26 01:30:20;;;;;;;18.97;7.30;;;;;;;8.74;61.50;96183.78;4988672;28;20417;-69
2023/04/26 01:32:45;;;;;;;6.83;6.13;;;;;;;8.85;61.14;96183.34;4988680;28;20443;-69
2023/04/26 01:35:10;;;;;;;8.23;6.00;;;;;;;8.79;60.87;96178.38;4988652;28;20176;-69
2023/04/26 01:37:36;;;;;;;14.13;6.80;;;;;;;8.77;61.81;96174.97;4988513;28;20181;-69
2023/04/26 01:40:05;;;;;;;16.43;7.20;;;;;;;8.88;61.99;96177.97;4988625;28;20192;-68
2023/04/26 01:42:30;;;;;;;8.53;6.83;;;;;;;8.84;61.35;96173.78;4988787;28;20204;-69
2023/04/26 01:44:56;;;;;;;8.80;6.23;;;;;;;8.73;60.59;96173.38;4988719;28;20408;-69
2023/04/26 01:47:21;;;;;;;10.53;6.13;;;;;;;8.73;59.85;96170.75;4988177;28;20204;-68
2023/04/26 01:49:47;;;;;;;8.20;5.47;;;;;;;8.81;58.60;96174.78;4988167;28;20179;-68
2023/04/26 01:52:12;;;;;;;9.63;6.33;;;;;;;8.77;58.38;96167.09;4988467;28;20207;-69
2023/04/26 01:54:37;;;;;;;9.10;5.83;;;;;;;8.86;58.08;96171.97;4988215;28;20515;-68
2023/04/26 01:57:03;;;;;;;8.00;6.50;;;;;;;8.84;58.40;96169.41;4987919;28;20176;-68
2023/04/26 01:59:29;;;;;;;10.07;7.90;;;;;;;8.77;58.68;96165.34;4988273;28;20661;-68
2023/04/26 02:01:54;;;;;;;11.20;5.90;;;;;;;8.56;58.70;96174.03;4987922;28;20733;-69
2023/04/26 02:04:20;;;;;;;7.33;5.77;;;;;;;8.68;59.06;96168.31;4988259;28;20428;-69
2023/04/26 02:06:45;;;;;;;11.53;8.33;;;;;;;8.68;59.73;96168.31;4987747;28;20208;-69
2023/04/26 02:09:11;;;;;;;8.60;5.37;;;;;;;8.71;60.11;96170.81;4988347;28;20260;-68
2023/04/26 02:11:36;;;;;;;10.33;6.87;;;;;;;8.71;60.16;96167.34;4988248;28;20188;-68
2023/04/26 02:14:01;;;;;;;7.50;6.70;;;;;;;8.63;60.07;96165.88;4988238;28;20200;-69
2023/04/26 02:16:27;;;;;;;11.03;7.07;;;;;;;8.67;61.24;96164.00;4988024;28;20165;-69
2023/04/26 02:18:52;;;;;;;12.00;6.47;;;;;;;8.62;61.28;96168.56;4988227;28;20263;-69
2023/04/26 02:21:18;;;;;;;9.10;6.37;;;;;;;8.62;61.18;96163.31;4988262;28;20271;-69
2023/04/26 02:23:44;;;;;;;8.53;6.60;;;;;;;8.61;60.31;96165.09;4987701;28;20242;-68
2023/04/26 02:26:10;;;;;;;12.67;7.23;;;;;;;8.59;60.62;96164.28;4987583;28;20213;-69
2023/04/26 02:28:36;;;;;;;9.97;6.20;;;;;;;8.61;61.32;96165.09;4987749;28;20279;-69
2023/04/26 02:31:02;;;;;;;9.47;6.40;;;;;;;8.60;60.59;96168.63;4987710;28;20590;-69
2023/04/26 02:33:27;;;;;;;12.03;6.60;;;;;;;8.54;60.05;96168.88;4987448;28;20288;-68
2023/04/26 02:35:53;;;;;;;8.50;6.37;;;;;;;8.53;60.38;96169.78;4987329;28;20169;-69
2023/04/26 02:38:18;;;;;;;11.30;6.97;;;;;;;8.50;61.35;96169.88;4987831;28;20208;-69
2023/04/26 02:40:44;;;;;;;8.03;6.03;;;;;;;8.61;61.65;96170.31;4987386;28;20188;-70
2023/04/26 02:43:10;;;;;;;10.07;6.33;;;;;;;8.56;62.12;96167.03;4987617;28;20207;-69
2023/04/26 02:45:44;;;;;;;10.53;7.73;;;;;;;8.53;62.38;96174.16;4987409;28;20223;-69
2023/04/26 02:48:10;;;;;;;7.90;6.30;;;;;;;8.50;62.79;96164.66;4987734;28;20180;-68
2023/04/26 02:50:35;;;;;;;14.70;7.40;;;;;;;8.48;63.62;96169.97;4987644;28;20411;-68
2023/04/26 02:53:02;;;;;;;12.53;8.00;;;;;;;8.43;63.57;96168.44;4988166;28;21097;-69
2023/04/26 02:55:27;;;;;;;10.93;7.70;;;;;;;8.40;63.93;96168.56;4987702;28;20177;-68
2023/04/26 02:57:53;;;;;;;8.60;7.70;;;;;;;8.45;64.26;96166.59;4987422;28;20423;-68
2023/04/26 03:00:18;;;;;;;10.33;7.73;;;;;;;8.50;63.67;96177.72;4987661;28;20168;-68
2023/04/26 03:02:44;;;;;;;11.27;8.40;;;;;;;8.37;63.95;96173.88;4987745;28;20196;-68
2023/04/26 03:05:09;;;;;;;9.67;7.90;;;;;;;8.30;64.24;96169.81;4987915;28;20541;-68
2023/04/26 03:07:35;;;;;;;12.00;7.10;;;;;;;8.31;64.70;96174.09;4988658;28;20738;-68
2023/04/26 03:10:01;;;;;;;11.30;7.77;;;;;;;8.42;64.91;96174.59;4988439;28;20191;-67
2023/04/26 03:12:26;;;;;;;12.50;7.93;;;;;;;8.35;65.10;96167.84;4988213;28;20436;-68
2023/04/26 03:14:52;;;;;;;10.60;8.50;;;;;;;8.25;65.53;96165.59;4988010;28;20272;-68
2023/04/26 03:17:17;;;;;;;9.97;7.27;;;;;;;8.15;65.53;96169.47;4987510;28;20177;-68
2023/04/26 03:19:43;;;;;;;22.07;9.10;;;;;;;8.28;65.13;96178.53;4987649;28;20183;-68
2023/04/26 03:22:10;;;;;;;17.67;8.10;;;;;;;8.42;65.15;96177.19;5003078;28;20204;-67
2023/04/26 03:24:35;;;;;;;10.07;7.10;;;;;;;8.38;64.71;96171.19;4987698;28;20205;-67
2023/04/26 03:27:01;;;;;;;18.47;8.43;;;;;;;8.40;63.45;96173.78;5018592;28;20487;-67
2023/04/26 03:29:26;;;;;;;24.40;9.37;;;;;;;8.40;63.53;96179.00;4987342;28;20224;-68
2023/04/26 03:31:51;;;;;;;19.20;9.50;;;;;;;8.23;63.64;96172.63;4987391;28;20169;-67
2023/04/26 03:34:17;;;;;;;18.40;9.80;;;;;;;8.19;63.08;96175.44;4987827;28;20560;-69
2023/04/26 03:36:42;;;;;;;29.73;10.23;;;;;;;8.27;63.98;96181.22;4991058;28;20205;-70
2023/04/26 03:39:08;;;;;;;23.63;8.97;;;;;;;8.35;63.36;96187.00;4991197;28;20187;-70
2023/04/26 03:41:38;;;;;;;35.67;9.40;;;;;;;8.37;62.06;96179.13;4991259;28;20173;-69
2023/04/26 03:44:03;;;;;;;80.80;15.67;;;;;;;8.40;62.45;96174.63;4990955;28;20432;-69
2023/04/26 03:46:29;;;;;;;45.27;12.70;;;;;;;8.42;61.35;96182.44;4990563;28;20863;-70
2023/04/26 03:48:54;;;;;;;20.23;8.40;;;;;;;8.38;62.68;96183.41;4990863;28;20204;-69
2023/04/26 03:51:22;;;;;;;36.30;9.80;;;;;;;8.28;62.13;96181.16;4991127;28;20223;-70
2023/04/26 03:53:48;;;;;;;22.67;9.53;;;;;;;8.36;62.07;96180.00;4990644;28;20205;-68
2023/04/26 03:56:13;;;;;;;24.03;9.63;;;;;;;8.39;61.64;96172.91;4990419;28;20408;-67
2023/04/26 03:58:39;;;;;;;13.53;8.73;;;;;;;8.32;61.82;96181.06;4990768;28;20713;-68
2023/04/26 04:01:04;;;;;;;16.47;9.77;;;;;;;8.39;62.08;96180.75;4990590;28;20173;-68
2023/04/26 04:03:30;;;;;;;9.33;7.93;;;;;;;8.42;60.75;96178.03;4990445;28;20196;-68
2023/04/26 04:05:55;;;;;;;13.17;8.30;;;;;;;8.26;62.21;96175.13;4990136;28;20193;-68
2023/04/26 04:08:21;;;;;;;40.73;10.90;;;;;;;8.20;62.57;96179.75;4990357;28;20264;-68
2023/04/26 04:10:46;;;;;;;32.23;10.00;;;;;;;8.39;62.28;96169.44;4990514;28;20188;-68
2023/04/26 04:13:12;;;;;;;25.97;10.57;;;;;;;8.28;62.43;96175.09;4990380;28;20224;-68
2023/04/26 04:15:37;;;;;;;22.20;9.40;;;;;;;7.94;64.17;96172.91;4990410;28;20256;-69
2023/04/26 04:18:03;;;;;;;16.40;9.07;;;;;;;7.99;63.62;96177.03;4990107;28;20327;-68
2023/04/26 04:20:28;;;;;;;22.50;9.30;;;;;;;8.03;63.53;96173.41;4990419;28;20169;-68
2023/04/26 04:22:55;;;;;;;22.70;9.73;;;;;;;8.01;64.34;96183.06;4990025;28;20855;-68
2023/04/26 04:25:21;;;;;;;21.30;11.00;;;;;;;8.20;63.94;96183.22;4990507;28;20177;-68
2023/04/26 04:27:47;;;;;;;17.87;10.27;;;;;;;8.29;61.66;96184.63;4989785;28;20412;-68
2023/04/26 04:30:13;;;;;;;58.30;14.67;;;;;;;8.13;62.41;96189.59;4990152;28;20510;-68
2023/04/26 04:32:41;;;;;;;32.87;11.03;;;;;;;8.35;61.69;96191.38;4989755;28;20435;-68
2023/04/26 04:35:06;;;;;;;56.70;13.40;;;;;;;8.23;62.31;96190.94;4989774;28;20865;-68
2023/04/26 04:37:32;;;;;;;16.73;10.13;;;;;;;8.38;62.30;96184.25;4986649;28;20524;-69
2023/04/26 04:39:58;;;;;;;13.80;9.30;;;;;;;8.28;62.36;96191.63;4982399;28;20287;-68
2023/04/26 04:42:26;;;;;;;24.47;9.80;;;;;;;8.02;61.74;96200.44;4970357;28;20650;-68
2023/04/26 04:44:52;;;;;;;19.97;9.97;;;;;;;8.21;60.71;96189.28;4992755;28;20426;-68
2023/04/26 04:47:17;;;;;;;11.23;9.30;;;;;;;7.87;61.63;96190.56;5007625;28;20594;-67
2023/04/26 04:49:43;;;;;;;24.53;10.83;;;;;;;8.23;60.87;96190.94;5006953;28;20416;-68
2023/04/26 04:52:08;;;;;;;15.00;9.50;;;;;;;8.28;60.14;96196.00;5006656;28;20247;-68
2023/04/26 04:54:34;;;;;;;21.90;10.70;;;;;;;8.34;60.74;96193.16;5006582;28;20176;-67
2023/04/26 04:57:00;;;;;;;14.73;10.67;;;;;;;8.25;60.75;96202.19;4987871;28;20188;-68
2023/04/26 04:59:26;;;;;;;13.37;10.40;;;;;;;8.32;59.70;96202.81;4984837;28;20276;-68
2023/04/26 05:01:51;;;;;;;14.23;10.20;;;;;;;8.50;59.51;96189.97;4986901;28;20504;-68
2023/04/26 05:04:17;;;;;;;15.20;10.37;;;;;;;8.39;59.46;96199.06;4986932;28;20197;-68
2023/04/26 05:06:45;;;;;;;18.13;9.93;;;;;;;8.51;59.35;96202.16;4987523;28;20900;-69
2023/04/26 05:09:10;;;;;;;12.77;9.87;;;;;;;8.54;58.47;96195.03;4985872;28;20614;-69
2023/04/26 05:11:36;;;;;;;17.53;10.33;;;;;;;8.57;58.34;96202.72;4987610;28;20424;-68
2023/04/26 05:14:02;;;;;;;20.23;12.03;;;;;;;8.53;59.80;96195.06;4984877;28;20193;-69
2023/04/26 05:16:27;;;;;;;16.97;10.77;;;;;;;8.74;58.48;96196.00;4987305;28;20260;-67
2023/04/26 05:18:53;;;;;;;18.50;12.00;;;;;;;8.73;58.18;96191.69;4984825;28;20526;-67
2023/04/26 05:21:18;;;;;;;20.37;10.20;;;;;;;8.66;58.38;96191.91;4986152;28;20185;-67
2023/04/26 05:23:44;;;;;;;23.50;11.43;;;;;;;8.73;57.72;96202.16;4983867;28;20269;-67
2023/04/26 05:26:14;;;;;;;34.53;11.93;;;;;;;8.83;58.37;96206.09;4985771;28;20207;-67
2023/04/26 05:28:40;;;;;;;22.90;11.60;;;;;;;8.87;58.16;96203.28;4973135;28;20200;-68
2023/04/26 05:31:06;;;;;;;33.30;11.90;;;;;;;8.85;58.53;96214.72;4986073;28;20510;-69
2023/04/26 05:33:31;;;;;;;16.37;10.37;;;;;;;8.94;58.28;96218.75;4983844;28;20879;-68
2023/04/26 05:35:57;;;;;;;17.33;10.37;;;;;;;8.66;58.25;96220.69;4983360;28;20179;-69
2023/04/26 05:38:23;;;;;;;41.53;13.70;;;;;;;8.85;58.20;96223.44;4982964;28;20180;-68
2023/04/26 05:40:49;;;;;;;28.70;13.37;;;;;;;8.95;59.00;96230.91;4980451;28;20192;-68
2023/04/26 05:43:15;;;;;;;25.93;11.40;;;;;;;8.78;58.45;96224.59;4978271;28;20210;-69
2023/04/26 05:45:50;;;;;;;37.70;13.37;;;;;;;8.88;57.93;96230.31;4980514;28;20510;-69
2023/04/26 05:48:15;;;;;;;23.23;11.53;;;;;;;9.27;58.04;96229.63;4975559;28;20176;-67
2023/04/26 05:50:41;;;;;;;17.73;11.23;;;;;;;9.36;57.00;96229.22;4980399;28;21132;-68
2023/04/26 05:53:07;;;;;;;12.47;10.33;;;;;;;9.39;56.62;96233.50;4979613;28;20205;-68
2023/04/26 05:55:32;;;;;;;15.27;10.63;;;;;;;9.63;55.44;96237.69;4969388;28;20268;-67
2023/04/26 05:57:57;;;;;;;17.20;10.20;;;;;;;10.32;53.53;96233.81;4975928;28;20203;-68
2023/04/26 06:00:23;;;;;;;14.17;9.53;;;;;;;10.80;52.56;96232.47;4972657;28;20184;-68
2023/04/26 06:02:49;;;;;;;17.37;11.30;;;;;;;11.70;49.43;96232.41;4979277;28;20213;-68
2023/04/26 06:05:14;;;;;;;16.40;9.90;;;;;;;12.25;48.30;96228.72;4982416;28;21007;-68
2023/04/26 06:07:40;;;;;;;24.70;11.00;;;;;;;12.11;48.13;96236.50;4967911;28;20209;-67
2023/04/26 06:10:06;;;;;;;23.97;12.20;;;;;;;11.51;49.35;96239.53;4976107;28;20179;-67
2023/04/26 06:12:31;;;;;;;34.03;12.00;;;;;;;11.33;49.80;96242.13;4970142;28;20227;-67
2023/04/26 06:14:57;;;;;;;16.40;11.40;;;;;;;10.95;49.48;96244.84;4978083;28;20530;-68
2023/04/26 06:17:24;;;;;;;38.73;13.23;;;;;;;10.46;51.79;96241.91;4976845;28;20260;-67
2023/04/26 06:19:49;;;;;;;33.90;11.80;;;;;;;10.24;53.07;96239.38;4972527;28;20677;-67
2023/04/26 06:22:15;;;;;;;53.13;15.17;;;;;;;10.42;51.57;96243.00;4975192;28;20449;-69
2023/04/26 06:24:40;;;;;;;19.00;11.87;;;;;;;10.56;51.60;96240.56;4973269;28;20196;-68
2023/04/26 06:27:05;;;;;;;19.70;11.37;;;;;;;10.75;51.67;96232.69;4976088;28;20214;-68
2023/04/26 06:29:34;;;;;;;15.23;9.17;;;;;;;10.81;49.76;96236.78;4974850;28;20193;-67
2023/04/26 06:32:00;;;;;;;19.47;10.27;;;;;;;11.05;49.22;96245.25;4969890;28;20181;-68
2023/04/26 06:34:26;;;;;;;24.83;10.00;;;;;;;10.54;50.37;96241.56;4970754;28;20496;-67
2023/04/26 06:36:51;;;;;;;22.13;10.37;;;;;;;10.30;50.42;96244.41;4974414;28;20177;-68
2023/04/26 06:39:17;;;;;;;30.50;11.60;;;;;;;9.74;52.15;96247.72;4977661;28;20188;-67
2023/04/26 06:41:42;;;;;;;27.90;9.60;;;;;;;9.52;51.68;96246.00;4986937;28;20188;-68
2023/04/26 06:44:07;;;;;;;15.33;9.03;;;;;;;9.95;49.08;96240.69;4969071;28;20208;-68
2023/04/26 06:46:33;;;;;;;38.40;10.63;;;;;;;10.02;48.72;96249.16;4973908;28;20432;-68
2023/04/26 06:49:00;;;;;;;36.07;10.60;;;;;;;10.26;49.71;96253.28;4978214;28;20777;-68
2023/04/26 06:51:26;;;;;;;36.83;13.07;;;;;;;10.36;49.88;96249.34;4981247;28;20492;-67
2023/04/26 06:53:51;;;;;;;17.83;9.17;;;;;;;10.31;50.48;96251.31;4982799;28;20466;-67
2023/04/26 06:56:17;;;;;;;24.30;12.20;;;;;;;10.37;50.73;96251.06;4972362;28;20216;-68
2023/04/26 06:58:59;;;;;;;16.70;9.23;;;;;;;9.89;51.86;96257.53;4972164;28;20186;-70
2023/04/26 07:01:25;;;;;;;23.83;10.13;;;;;;;9.51;53.29;96257.38;4975110;28;20841;-67
2023/04/26 07:03:50;;;;;;;20.63;10.83;;;;;;;10.05;52.90;96251.63;4979719;28;20443;-66
2023/04/26 07:06:16;;;;;;;23.20;10.10;;;;;;;10.26;51.09;96244.56;4982318;28;20214;-69
2023/04/26 07:08:41;;;;;;;16.03;9.93;;;;;;;10.07;51.59;96242.75;4983359;28;20643;-68
2023/04/26 07:11:11;;;;;;;38.10;11.47;;;;;;;10.26;51.75;96250.66;4974209;28;20296;-69
2023/04/26 07:13:36;;;;;;;45.93;11.20;;;;;;;10.48;51.26;96242.69;4977637;28;20328;-67
2023/04/26 07:16:02;;;;;;;18.23;8.97;;;;;;;10.34;51.03;96248.56;4983242;28;20532;-67
2023/04/26 07:18:27;;;;;;;13.80;10.63;;;;;;;10.40;51.16;96249.22;4982681;28;20650;-67
2023/04/26 07:20:53;;;;;;;11.60;9.47;;;;;;;11.04;49.28;96246.19;4981456;28;20185;-67
2023/04/26 07:23:19;;;;;;;28.10;10.47;;;;;;;11.12;49.15;96249.28;4976645;28;20606;-66
2023/04/26 07:25:44;;;;;;;15.13;9.13;;;;;;;10.44;51.14;96248.16;4975179;28;20205;-67
2023/04/26 07:28:10;;;;;;;11.17;10.00;;;;;;;10.33;50.71;96246.03;4980011;28;20517;-68
2023/04/26 07:30:35;;;;;;;22.40;11.53;;;;;;;9.65;53.15;96255.97;4982757;28;20182;-68
2023/04/26 07:33:00;;;;;;;20.10;10.90;;;;;;;9.87;52.44;96253.25;4986496;28;20204;-68
2023/04/26 07:35:26;;;;;;;14.00;8.80;;;;;;;9.88;52.77;96247.97;4974038;28;20188;-67
2023/04/26 07:37:51;;;;;;;17.00;10.20;;;;;;;10.05;51.50;96249.84;4973667;28;20161;-68
2023/04/26 07:40:18;;;;;;;11.57;8.70;;;;;;;10.32;51.12;96247.81;4977705;28;20216;-66
2023/04/26 07:42:44;;;;;;;33.63;10.83;;;;;;;10.72;50.06;96248.56;4981901;28;20239;-68
2023/04/26 07:45:10;;;;;;;20.73;11.10;;;;;;;10.83;49.36;96241.97;4984638;28;20846;-68
2023/04/26 07:47:35;;;;;;;20.03;9.10;;;;;;;10.98;48.71;96242.09;4980673;28;20212;-66
2023/04/26 07:50:01;;;;;;;12.97;8.43;;;;;;;11.74;46.57;96233.97;4979016;28;20436;-66
2023/04/26 07:52:26;;;;;;;12.57;9.60;;;;;;;11.50;47.80;96235.19;4974417;28;20203;-67
2023/04/26 07:54:51;;;;;;;16.13;9.90;;;;;;;10.97;48.50;96248.25;4980380;28;20177;-68
2023/04/26 07:57:17;;;;;;;33.23;10.87;;;;;;;10.31;48.87;96253.09;4978854;28;20178;-68
2023/04/26 07:59:42;;;;;;;13.30;10.27;;;;;;;11.60;47.01;96237.31;4981377;28;20189;-68
2023/04/26 08:02:08;;;;;;;13.17;8.57;;;;;;;12.55;44.46;96233.28;4976310;28;20177;-68
2023/04/26 08:04:33;;;;;;;11.30;9.20;;;;;;;11.98;46.17;96234.50;4980619;28;20651;-68
2023/04/26 08:07:00;;;;;;;21.10;10.10;;;;;;;11.70;47.21;96236.84;4974741;28;20204;-68
2023/04/26 08:09:27;;;;;;;24.30;12.30;;;;;;;11.70;46.40;96229.78;4977558;28;20674;-68
2023/04/26 08:11:52;;;;;;;19.40;10.27;;;;;;;12.22;44.86;96231.53;4984782;28;20868;-68
2023/04/26 08:14:18;;;;;;;22.50;9.63;;;;;;;12.54;44.03;96232.41;4985441;28;20456;-68
2023/04/26 08:16:43;;;;;;;34.97;13.10;;;;;;;11.43;45.56;96237.28;4979709;28;20181;-68
2023/04/26 08:19:08;;;;;;;22.97;11.70;;;;;;;12.02;44.77;96236.06;4973447;28;20201;-67
2023/04/26 08:21:34;;;;;;;45.77;12.17;;;;;;;12.49;54.26;96239.72;4973071;28;20185;-67
2023/04/26 08:23:59;;;;;;;11.30;6.20;;;;;;;13.65;58.03;96226.19;4980350;28;20295;-68
2023/04/26 08:26:25;;;;;;;10.53;8.07;;;;;;;12.79;49.47;96234.56;4976317;28;20215;-68
2023/04/26 08:28:50;;;;;;;16.50;8.90;;;;;;;12.69;46.55;96230.75;4979938;28;20227;-66
2023/04/26 08:31:16;;;;;;;16.80;8.03;;;;;;;12.20;44.18;96228.13;4979587;28;20181;-66
2023/04/26 08:33:41;;;;;;;13.97;8.80;;;;;;;11.49;45.04;96233.50;4973556;28;20315;-68
2023/04/26 08:36:07;;;;;;;20.70;8.80;;;;;;;11.62;45.14;96243.34;4972980;28;20189;-68
2023/04/26 08:38:32;;;;;;;16.57;9.27;;;;;;;11.85;43.51;96238.66;4988018;28;20177;-67
2023/04/26 08:41:00;;;;;;;17.00;8.20;;;;;;;12.08;42.87;96235.72;4987818;28;20204;-68
2023/04/26 08:43:27;;;;;;;31.33;9.33;;;;;;;12.07;44.32;96234.03;4987893;28;20201;-69
2023/04/26 08:45:54;;;;;;;15.13;8.40;;;;;;;12.11;43.93;96244.38;4992849;28;20454;-68
2023/04/26 08:48:20;;;;;;;24.00;9.40;;;;;;;12.09;42.79;96241.81;4973277;28;20519;-68
2023/04/26 08:50:47;;;;;;;25.27;9.60;;;;;;;12.11;43.48;96237.34;4976719;28;20949;-69
2023/04/26 08:53:18;;;;;;;26.97;8.40;;;;;;;11.13;45.06;96244.91;4977177;28;20455;-68
2023/04/26 08:55:48;;;;;;;12.67;7.40;;;;;;;11.01;45.83;96247.19;4988968;28;20523;-69
2023/04/26 08:58:15;;;;;;;26.30;8.57;;;;;;;11.50;44.00;96248.34;4980823;28;20449;-69
2023/04/26 09:00:43;;;;;;;33.73;9.40;;;;;;;11.68;44.10;96252.69;4972281;28;20439;-68
2023/04/26 09:03:09;;;;;;;27.13;8.93;;;;;;;11.71;43.85;96246.41;4971638;28;20449;-69
2023/04/26 09:05:35;;;;;;;22.73;8.67;;;;;;;11.74;43.94;96246.25;4979185;28;20434;-70
2023/04/26 09:08:02;;;;;;;19.67;9.07;;;;;;;11.21;45.59;96243.59;4977830;28;20192;-69
2023/04/26 09:10:29;;;;;;;22.23;9.13;;;;;;;12.02;43.75;96240.44;4982365;28;20547;-69
2023/04/26 09:12:55;;;;;;;15.07;8.37;;;;;;;12.25;42.54;96239.25;4980965;28;20459;-70
2023/04/26 09:15:22;;;;;;;32.50;9.80;;;;;;;12.33;42.98;96247.59;4978876;28;20786;-70
2023/04/26 09:17:50;;;;;;;13.70;8.43;;;;;;;13.09;41.32;96241.69;4985136;28;20435;-70
2023/04/26 09:20:28;;;;;;;12.90;8.33;;;;;;;12.97;41.20;96229.19;4989314;28;20515;-69
2023/04/26 09:23:05;;;;;;;23.47;9.70;;;;;;;13.00;42.15;96232.50;4981392;28;20848;-69
2023/04/26 09:25:31;;;;;;;16.93;9.07;;;;;;;13.07;40.78;96227.75;4987008;28;20487;-68
2023/04/26 09:27:57;;;;;;;8.53;7.53;;;;;;;12.84;41.92;96234.31;4983853;28;20496;-69
2023/04/26 09:30:23;;;;;;;18.00;8.10;;;;;;;12.70;43.17;96222.75;4980653;28;20231;-69
2023/04/26 09:32:55;;;;;;;14.27;7.47;;;;;;;12.05;42.79;96235.88;4978161;28;20514;-68
2023/04/26 09:35:33;;;;;;;10.27;7.50;;;;;;;11.56;42.90;96235.75;4991259;28;20188;-70
2023/04/26 09:38:04;;;;;;;20.33;9.33;;;;;;;11.08;44.68;96245.13;4980699;28;20455;-68
2023/04/26 09:40:32;;;;;;;12.73;9.37;;;;;;;11.00;44.36;96234.13;4981345;28;20525;-69
2023/04/26 09:42:59;;;;;;;13.90;8.77;;;;;;;10.46;46.17;96241.06;4993814;28;20537;-70
2023/04/26 09:45:26;;;;;;;34.80;10.50;;;;;;;11.28;44.93;96227.53;4980637;28;20439;-67
2023/04/26 09:47:52;;;;;;;15.23;10.17;;;;;;;11.51;44.50;96231.66;4978133;28;21421;-70
2023/04/26 09:50:28;;;;;;;14.80;8.80;;;;;;;11.58;44.18;96228.63;4976081;28;20451;-68
2023/04/26 09:52:54;;;;;;;17.40;9.77;;;;;;;11.90;43.79;96228.78;4976540;28;20216;-69
2023/04/26 09:55:28;;;;;;;12.80;7.80;;;;;;;11.58;44.41;96230.41;4974632;28;20461;-68
2023/04/26 09:57:55;;;;;;;12.83;9.20;;;;;;;11.52;44.01;96233.34;4979993;28;20770;-69
2023/04/26 10:00:21;;;;;;;13.53;8.50;;;;;;;11.41;44.52;96228.66;4973307;28;20518;-69
2023/04/26 10:02:46;;;;;;;10.87;6.97;;;;;;;11.89;43.97;96229.72;4979443;28;20507;-68
2023/04/26 10:05:12;;;;;;;13.77;8.30;;;;;;;11.69;44.38;96237.75;4985075;28;20432;-69
2023/04/26 10:07:40;;;;;;;13.23;9.00;;;;;;;12.28;43.21;96231.19;4986356;28;20718;-68
2023/04/26 10:10:07;;;;;;;15.43;7.80;;;;;;;12.02;43.16;96228.16;4981142;28;20184;-68
2023/04/26 10:12:33;;;;;;;13.03;8.50;;;;;;;12.19;43.13;96221.13;4982021;28;20461;-69
2023/04/26 10:14:58;;;;;;;14.80;9.57;;;;;;;11.96;44.38;96220.59;4980116;28;20428;-69
2023/04/26 10:17:24;;;;;;;16.23;7.20;;;;;;;12.33;43.39;96215.16;4986013;28;20505;-70
2023/04/26 10:19:53;;;;;;;15.27;8.93;;;;;;;12.51;41.46;96219.41;4978114;28;20235;-69
2023/04/26 10:22:22;;;;;;;29.87;10.90;;;;;;;12.67;42.08;96216.81;4974304;28;20456;-69
2023/04/26 10:24:48;;;;;;;24.37;9.00;;;;;;;12.47;41.16;96215.25;4977475;28;20433;-69
2023/04/26 10:27:15;;;;;;;26.93;9.00;;;;;;;11.84;42.64;96205.44;4981361;28;20475;-69
2023/04/26 10:29:55;;;;;;;17.70;9.87;;;;;;;11.58;44.15;96204.13;4979689;28;20857;-71
2023/04/26 10:32:22;;;;;;;16.93;10.43;;;;;;;11.25;45.26;96207.53;4969544;28;20496;-68
2023/04/26 10:35:20;;;;;;;33.23;13.37;;;;;;;11.10;45.33;96203.91;4976930;28;20456;-70
2023/04/26 10:38:01;;;;;;;26.10;11.30;;;;;;;11.59;45.26;96204.03;4981832;28;20555;-68
2023/04/26 10:40:28;;;;;;;19.50;10.50;;;;;;;12.06;43.69;96192.03;4973331;28;20566;-69
2023/04/26 10:43:18;;;;;;;25.90;11.20;;;;;;;12.35;42.89;96195.72;4976133;28;20939;-69
2023/04/26 10:45:47;;;;;;;39.50;11.80;;;;;;;12.23;43.04;96181.44;4979448;28;20439;-70
2023/04/26 10:48:20;;;;;;;21.97;9.47;;;;;;;11.66;43.79;96187.03;4973731;28;20464;-69
2023/04/26 10:50:58;;;;;;;44.80;10.73;;;;;;;11.55;44.75;96193.75;4972536;28;20468;-69
2023/04/26 10:53:24;;;;;;;21.50;10.77;;;;;;;11.56;44.55;96188.44;4977050;28;20539;-70
2023/04/26 10:55:50;;;;;;;19.17;10.00;;;;;;;11.09;45.28;96180.31;4983399;28;20515;-70
2023/04/26 10:58:39;;;;;;;13.17;8.73;;;;;;;11.29;44.26;96172.31;4981300;28;20435;-72
2023/04/26 11:01:10;;;;;;;20.33;8.70;;;;;;;11.41;42.73;96181.34;4981299;28;20435;-69
2023/04/26 11:03:37;;;;;;;11.33;7.43;;;;;;;11.50;42.43;96175.59;4972701;28;20574;-69
2023/04/26 11:06:07;;;;;;;14.60;7.67;;;;;;;11.65;42.72;96174.81;4978045;28;20490;-67
2023/04/26 11:08:34;;;;;;;11.90;7.63;;;;;;;11.26;42.79;96182.09;4975068;28;20459;-69
2023/04/26 11:11:02;;;;;;;11.13;7.20;;;;;;;11.54;43.26;96181.56;4978670;28;20480;-69
2023/04/26 11:13:32;;;;;;;15.60;6.87;;;;;;;11.97;41.70;96172.31;4980988;28;20490;-69
2023/04/26 11:16:05;;;;;;;23.80;8.40;;;;;;;11.97;40.58;96180.19;4982024;28;20484;-69
2023/04/26 11:18:35;;;;;;;28.63;10.70;;;;;;;12.21;40.97;96182.44;4972808;28;20440;-69
2023/04/26 11:21:01;;;;;;;525.17;61.50;;;;;;;12.59;40.05;96177.75;4974281;28;20432;-68
2023/04/26 11:23:28;;;;;;;24.63;10.17;;;;;;;12.20;41.49;96178.97;4976219;28;20506;-68
2023/04/26 11:26:04;;;;;;;34.93;9.50;;;;;;;12.55;41.66;96172.75;4973304;28;20184;-70